Time;durP1;ratioP1;P1;durP2;ratioP2;P2;SDS_P1;SDS_P2;PMS_P1;PMS_P2;Temp;Humidity;BMP_temperature;BMP_pressure;BME280_temperature;BME280_humidity;BME280_pressure;Samples;Min_cycle;Max_cycle;Signal;HPM_P1;HPM_P2
2021/08/05 00:02:11;;;;;;;6.27;5.70;;;17.10;99.90;;;;;;4995952;28;20969;-68
2021/08/05 00:04:39;;;;;;;6.60;5.10;;;17.20;99.90;;;;;;4992031;28;20470;-68
2021/08/05 00:07:06;;;;;;;6.50;5.90;;;17.10;99.90;;;;;;4996188;28;20739;-68
2021/08/05 00:09:34;;;;;;;6.00;5.47;;;17.20;99.90;;;;;;4997472;28;21003;-68
2021/08/05 00:12:01;;;;;;;9.10;5.83;;;17.40;99.90;;;;;;4992456;28;20462;-68
2021/08/05 00:14:28;;;;;;;5.73;5.13;;;17.50;99.90;;;;;;4981027;28;20443;-68
2021/08/05 00:16:56;;;;;;;6.40;5.80;;;17.50;99.90;;;;;;4981336;28;20491;-68
2021/08/05 00:19:23;;;;;;;6.90;6.00;;;17.50;99.90;;;;;;5011534;28;20484;-69
2021/08/05 00:21:50;;;;;;;6.73;5.80;;;17.40;99.90;;;;;;4986391;28;20500;-68
2021/08/05 00:24:18;;;;;;;5.97;5.47;;;17.40;99.90;;;;;;5000223;28;20658;-68
2021/08/05 00:26:45;;;;;;;7.13;5.73;;;17.40;99.90;;;;;;5004478;28;20500;-67
2021/08/05 00:29:12;;;;;;;7.87;6.20;;;17.30;99.90;;;;;;4992089;28;20442;-67
2021/08/05 00:31:39;;;;;;;7.50;6.47;;;17.40;99.90;;;;;;4993996;28;20999;-68
2021/08/05 00:34:06;;;;;;;7.70;6.30;;;17.40;99.90;;;;;;4980745;28;20511;-69
2021/08/05 00:36:34;;;;;;;5.80;5.30;;;17.40;99.90;;;;;;5007200;28;20441;-69
2021/08/05 00:39:01;;;;;;;6.17;5.23;;;17.40;99.90;;;;;;4987833;28;20445;-69
2021/08/05 00:41:28;;;;;;;6.30;5.60;;;17.40;99.90;;;;;;4995338;28;20414;-69
2021/08/05 00:43:55;;;;;;;6.17;5.67;;;17.40;99.90;;;;;;4999171;28;20539;-68
2021/08/05 00:46:22;;;;;;;6.03;5.43;;;17.40;99.90;;;;;;4989087;28;20442;-68
2021/08/05 00:48:49;;;;;;;5.93;5.37;;;17.40;99.90;;;;;;5007641;28;20413;-68
2021/08/05 00:51:16;;;;;;;8.40;5.50;;;17.40;99.90;;;;;;4989448;28;20470;-68
2021/08/05 00:53:44;;;;;;;7.10;6.10;;;17.40;99.90;;;;;;4999874;28;20608;-68
2021/08/05 00:56:12;;;;;;;6.23;5.63;;;17.40;99.90;;;;;;4999842;28;20439;-68
2021/08/05 00:58:39;;;;;;;5.43;4.97;;;17.30;99.90;;;;;;4986166;28;20443;-69
2021/08/05 01:01:14;;;;;;;7.70;6.97;;;17.40;99.90;;;;;;4993118;28;20499;-67
2021/08/05 01:03:44;;;;;;;6.83;6.20;;;17.50;99.90;;;;;;4993137;28;20539;-68
2021/08/05 01:06:17;;;;;;;6.60;5.40;;;17.20;99.90;;;;;;4987120;28;20572;-68
2021/08/05 01:09:01;;;;;;;4.90;4.40;;;16.90;99.90;;;;;;4999200;28;20439;-68
2021/08/05 01:11:32;;;;;;;7.50;6.70;;;16.70;99.90;;;;;;4988160;28;20493;-68
2021/08/05 01:14:04;;;;;;;6.50;5.53;;;16.30;99.90;;;;;;4998594;28;20449;-68
2021/08/05 01:16:36;;;;;;;7.40;5.03;;;16.10;99.90;;;;;;4999449;28;20446;-67
2021/08/05 01:19:25;;;;;;;9.00;4.90;;;15.90;99.90;;;;;;4997135;28;20553;-68
2021/08/05 01:22:07;;;;;;;5.93;5.20;;;16.20;99.90;;;;;;4989026;28;20619;-67
2021/08/05 01:24:37;;;;;;;6.13;5.47;;;16.40;99.90;;;;;;4997285;28;20462;-68
2021/08/05 01:27:04;;;;;;;4.70;4.30;;;16.20;99.90;;;;;;4998090;28;20460;-68
2021/08/05 01:29:35;;;;;;;4.70;4.30;;;16.20;99.90;;;;;;4998886;28;20445;-67
2021/08/05 01:32:04;;;;;;;4.75;4.15;;;16.20;99.90;;;;;;4998058;28;20483;-67
2021/08/05 01:34:32;;;;;;;4.60;4.25;;;16.10;99.90;;;;;;4995263;28;20203;-69
2021/08/05 01:37:00;;;;;;;12.77;4.20;;;16.10;99.90;;;;;;4999246;28;20325;-69
2021/08/05 01:39:29;;;;;;;4.53;4.10;;;16.00;99.90;;;;;;4998972;28;20456;-67
2021/08/05 01:41:56;;;;;;;4.67;4.27;;;16.20;99.90;;;;;;4999494;28;20437;-69
2021/08/05 01:44:24;;;;;;;5.00;4.60;;;16.50;99.90;;;;;;4998964;28;20485;-69
2021/08/05 01:46:52;;;;;;;4.33;4.03;;;16.70;99.90;;;;;;4996976;28;20784;-68
2021/08/05 01:49:21;;;;;;;5.13;4.63;;;16.80;99.90;;;;;;4998843;28;20465;-69
2021/08/05 01:51:49;;;;;;;7.67;4.67;;;16.90;99.90;;;;;;4997517;28;20830;-68
2021/08/05 01:54:16;;;;;;;4.50;4.10;;;16.80;99.90;;;;;;5018039;28;20471;-68
2021/08/05 01:56:43;;;;;;;5.67;5.10;;;16.90;99.90;;;;;;4986955;28;20669;-68
2021/08/05 01:59:10;;;;;;;5.63;4.97;;;16.80;99.90;;;;;;4978647;28;20443;-68
2021/08/05 02:01:37;;;;;;;6.68;5.35;;;16.80;99.90;;;;;;4992729;28;20450;-68
2021/08/05 02:04:11;;;;;;;5.20;4.80;;;16.80;99.90;;;;;;4985315;28;20306;-67
2021/08/05 02:06:47;;;;;;;5.73;4.83;;;16.60;99.90;;;;;;4998817;28;20464;-68
2021/08/05 02:09:19;;;;;;;6.97;4.70;;;16.50;99.90;;;;;;4983386;28;20449;-69
2021/08/05 02:11:50;;;;;;;5.10;4.70;;;16.80;99.90;;;;;;4985577;28;20484;-69
2021/08/05 02:14:21;;;;;;;5.50;4.83;;;16.60;99.90;;;;;;4998110;28;20492;-68
2021/08/05 02:16:49;;;;;;;7.75;5.90;;;16.60;99.90;;;;;;5003293;28;20438;-69
2021/08/05 02:19:17;;;;;;;5.63;5.13;;;16.60;99.90;;;;;;4997138;28;20250;-68
2021/08/05 02:21:45;;;;;;;6.35;5.40;;;16.50;99.90;;;;;;4985985;28;20480;-68
2021/08/05 02:24:16;;;;;;;6.33;5.50;;;16.40;99.90;;;;;;5011414;28;20242;-69
2021/08/05 02:26:43;;;;;;;4.95;4.55;;;16.20;99.90;;;;;;4984573;28;20540;-67
2021/08/05 02:29:11;;;;;;;5.85;5.18;;;16.20;99.90;;;;;;5006858;28;20257;-67
2021/08/05 02:31:39;;;;;;;4.53;4.17;;;16.10;99.90;;;;;;4987191;28;20198;-67
2021/08/05 02:34:08;;;;;;;5.93;4.70;;;16.10;99.90;;;;;;4989632;28;20750;-68
2021/08/05 02:36:36;;;;;;;5.60;5.10;;;16.10;99.90;;;;;;4986801;28;20717;-68
2021/08/05 02:39:04;;;;;;;6.93;5.87;;;16.10;99.90;;;;;;4989280;28;20262;-68
2021/08/05 02:41:32;;;;;;;7.00;5.50;;;16.20;99.90;;;;;;4989268;28;20507;-68
2021/08/05 02:44:01;;;;;;;5.13;4.67;;;16.20;99.90;;;;;;5001518;28;20472;-67
2021/08/05 02:46:30;;;;;;;5.27;4.87;;;16.20;99.90;;;;;;5002307;28;20441;-68
2021/08/05 02:48:58;;;;;;;5.87;5.37;;;16.20;99.90;;;;;;5011319;28;20519;-68
2021/08/05 02:51:26;;;;;;;5.88;5.25;;;16.30;99.90;;;;;;5003868;28;20436;-69
2021/08/05 02:53:55;;;;;;;5.88;5.22;;;16.10;99.90;;;;;;4989404;28;20202;-67
2021/08/05 02:56:22;;;;;;;6.40;5.10;;;16.00;99.90;;;;;;5005583;28;20244;-67
2021/08/05 02:58:50;;;;;;;5.45;4.97;;;16.10;99.90;;;;;;4987310;28;20206;-69
2021/08/05 03:01:20;;;;;;;6.47;5.27;;;16.00;99.90;;;;;;4990471;28;20243;-67
2021/08/05 03:03:52;;;;;;;4.20;3.90;;;16.00;99.90;;;;;;4995680;28;20488;-66
2021/08/05 03:06:31;;;;;;;5.97;5.47;;;16.10;99.90;;;;;;5006751;28;20626;-67
2021/08/05 03:08:58;;;;;;;6.07;5.53;;;16.20;99.90;;;;;;5001530;28;20199;-66
2021/08/05 03:11:25;;;;;;;5.72;5.28;;;16.20;99.90;;;;;;5000505;28;20224;-67
2021/08/05 03:13:52;;;;;;;5.68;4.85;;;16.10;99.90;;;;;;4994228;28;20211;-67
2021/08/05 03:16:19;;;;;;;5.47;4.97;;;16.20;99.90;;;;;;4983214;28;20205;-68
2021/08/05 03:18:46;;;;;;;6.10;4.93;;;16.40;99.90;;;;;;4992443;28;20468;-67
2021/08/05 03:21:13;;;;;;;5.00;4.60;;;16.40;99.90;;;;;;4997044;28;20500;-69
2021/08/05 03:23:40;;;;;;;5.70;4.28;;;16.40;99.90;;;;;;4997014;28;20242;-68
2021/08/05 03:26:08;;;;;;;5.50;5.00;;;16.40;99.90;;;;;;5011702;28;20207;-67
2021/08/05 03:28:35;;;;;;;5.45;4.97;;;16.30;99.90;;;;;;5011400;28;20441;-68
2021/08/05 03:31:02;;;;;;;6.50;5.90;;;16.40;99.90;;;;;;5003231;28;20242;-70
2021/08/05 03:33:29;;;;;;;6.00;5.50;;;16.40;99.90;;;;;;4983173;28;20353;-68
2021/08/05 03:35:56;;;;;;;6.43;5.83;;;16.30;99.90;;;;;;4984511;28;20441;-67
2021/08/05 03:38:24;;;;;;;6.13;5.63;;;16.30;99.90;;;;;;4994829;28;20450;-68
2021/08/05 03:40:54;;;;;;;7.70;5.20;;;16.30;99.90;;;;;;4997171;28;20203;-68
2021/08/05 03:43:22;;;;;;;7.00;6.07;;;16.40;99.90;;;;;;4996342;28;20226;-68
2021/08/05 03:45:49;;;;;;;5.68;5.28;;;16.40;99.90;;;;;;5005985;28;20440;-67
2021/08/05 03:48:16;;;;;;;6.90;5.90;;;16.20;99.90;;;;;;5002274;28;20234;-68
2021/08/05 03:50:43;;;;;;;7.22;6.43;;;16.20;99.90;;;;;;5008541;28;20483;-68
2021/08/05 03:53:10;;;;;;;5.93;5.27;;;16.20;99.90;;;;;;4983207;28;20421;-68
2021/08/05 03:55:37;;;;;;;4.83;4.30;;;16.30;99.90;;;;;;4989568;28;20414;-68
2021/08/05 03:58:06;;;;;;;6.50;4.97;;;16.40;99.90;;;;;;4992123;28;20637;-69
2021/08/05 04:00:33;;;;;;;4.97;4.57;;;16.30;99.90;;;;;;4995153;28;20238;-68
2021/08/05 04:03:00;;;;;;;5.93;5.22;;;16.30;99.90;;;;;;5007698;28;20517;-68
2021/08/05 04:05:28;;;;;;;5.03;4.63;;;16.30;99.90;;;;;;5029037;28;20310;-68
2021/08/05 04:07:55;;;;;;;4.70;4.30;;;16.40;99.90;;;;;;5006466;28;20437;-67
2021/08/05 04:10:22;;;;;;;5.13;4.73;;;16.50;99.90;;;;;;5007478;28;20486;-68
2021/08/05 04:12:50;;;;;;;4.87;4.27;;;16.50;99.90;;;;;;4996794;28;20437;-67
2021/08/05 04:15:17;;;;;;;5.75;5.25;;;16.60;99.90;;;;;;4995978;28;20484;-69
2021/08/05 04:17:44;;;;;;;10.20;4.90;;;16.40;99.90;;;;;;4988107;28;20247;-68
2021/08/05 04:20:12;;;;;;;5.40;5.00;;;16.50;99.90;;;;;;4996975;28;20416;-67
2021/08/05 04:22:39;;;;;;;5.77;5.27;;;16.70;99.90;;;;;;4996415;28;20476;-68
2021/08/05 04:25:08;;;;;;;5.13;4.73;;;16.70;99.90;;;;;;4996827;28;20820;-69
2021/08/05 04:27:38;;;;;;;5.43;4.97;;;16.70;99.90;;;;;;5005654;28;20626;-69
2021/08/05 04:30:10;;;;;;;5.17;4.77;;;16.70;99.90;;;;;;4997271;28;20412;-69
2021/08/05 04:32:38;;;;;;;5.93;5.32;;;16.80;99.90;;;;;;4996039;28;20416;-67
2021/08/05 04:35:07;;;;;;;5.57;5.07;;;16.70;99.90;;;;;;4995902;28;20203;-69
2021/08/05 04:37:34;;;;;;;7.07;5.80;;;16.70;99.90;;;;;;4996380;28;20815;-69
2021/08/05 04:40:03;;;;;;;5.50;5.10;;;16.70;99.90;;;;;;4996207;28;20441;-69
2021/08/05 04:42:30;;;;;;;5.93;4.80;;;16.80;99.90;;;;;;4996514;28;20485;-68
2021/08/05 04:44:57;;;;;;;6.63;6.03;;;16.80;99.90;;;;;;4995989;28;20477;-68
2021/08/05 04:47:24;;;;;;;6.53;5.93;;;16.90;99.90;;;;;;4987725;28;20204;-67
2021/08/05 04:49:51;;;;;;;6.97;6.37;;;17.10;99.90;;;;;;4977867;28;20612;-67
2021/08/05 04:52:18;;;;;;;6.53;5.90;;;17.20;99.90;;;;;;4997066;28;20442;-67
2021/08/05 04:54:46;;;;;;;9.23;5.90;;;17.20;99.90;;;;;;4996096;28;20488;-69
2021/08/05 04:57:13;;;;;;;6.87;6.17;;;17.40;99.90;;;;;;4986189;28;20497;-68
2021/08/05 04:59:40;;;;;;;8.23;6.00;;;17.60;99.90;;;;;;4999467;28;20472;-68
2021/08/05 05:02:07;;;;;;;7.50;5.93;;;17.20;99.90;;;;;;4994920;28;20551;-67
2021/08/05 05:04:34;;;;;;;7.00;6.30;;;17.10;99.90;;;;;;4979990;28;20493;-68
2021/08/05 05:07:02;;;;;;;7.40;6.70;;;17.10;99.90;;;;;;5009222;28;20438;-68
2021/08/05 05:09:29;;;;;;;6.83;6.17;;;17.00;99.90;;;;;;4991484;28;20445;-68
2021/08/05 05:11:56;;;;;;;6.90;6.20;;;17.10;99.90;;;;;;4994358;28;20744;-68
2021/08/05 05:14:23;;;;;;;6.57;5.93;;;17.00;99.90;;;;;;5000050;28;20684;-68
2021/08/05 05:16:50;;;;;;;8.13;7.33;;;17.00;99.90;;;;;;4991955;28;20632;-68
2021/08/05 05:19:18;;;;;;;8.13;7.10;;;17.20;99.90;;;;;;4998702;28;20441;-68
2021/08/05 05:21:45;;;;;;;10.40;7.60;;;17.30;99.90;;;;;;4991982;28;20442;-69
2021/08/05 05:24:12;;;;;;;8.00;6.60;;;17.40;99.90;;;;;;4993028;28;20545;-68
2021/08/05 05:26:53;;;;;;;9.33;7.97;;;17.30;99.90;;;;;;4993901;28;20431;-71
2021/08/05 05:29:20;;;;;;;13.90;7.27;;;17.30;99.90;;;;;;5000442;28;20493;-69
2021/08/05 05:31:47;;;;;;;12.40;8.23;;;17.30;99.90;;;;;;4999877;28;20831;-68
2021/08/05 05:34:14;;;;;;;7.77;7.07;;;17.30;99.90;;;;;;5011271;28;20681;-68
2021/08/05 05:36:41;;;;;;;7.67;7.00;;;17.20;99.90;;;;;;5015633;28;20480;-67
2021/08/05 05:39:08;;;;;;;7.07;6.47;;;17.20;99.90;;;;;;4999203;28;20443;-68
2021/08/05 05:41:35;;;;;;;7.60;6.87;;;17.30;99.90;;;;;;4986717;28;20495;-69
2021/08/05 05:44:02;;;;;;;8.00;7.30;;;17.40;99.90;;;;;;4999028;28;20667;-68
2021/08/05 05:46:29;;;;;;;10.87;7.50;;;17.50;99.90;;;;;;4998921;28;20440;-69
2021/08/05 05:48:56;;;;;;;9.97;7.60;;;17.60;99.90;;;;;;4986725;28;20434;-68
2021/08/05 05:51:23;;;;;;;8.47;7.60;;;17.50;99.90;;;;;;4998836;28;20463;-68
2021/08/05 05:53:51;;;;;;;8.50;7.80;;;17.60;99.90;;;;;;4994220;28;20683;-70
2021/08/05 05:56:18;;;;;;;8.20;7.00;;;17.70;99.90;;;;;;4980911;28;20450;-68
2021/08/05 05:58:45;;;;;;;6.97;6.30;;;17.70;99.90;;;;;;4984644;28;20724;-67
2021/08/05 06:01:12;;;;;;;7.37;6.77;;;17.70;99.90;;;;;;4998964;28;20513;-69
2021/08/05 06:03:39;;;;;;;8.13;7.33;;;17.80;99.90;;;;;;4998769;28;20502;-67
2021/08/05 06:06:06;;;;;;;7.40;6.80;;;17.90;99.90;;;;;;4999265;28;20413;-69
2021/08/05 06:08:33;;;;;;;8.33;7.50;;;18.10;99.90;;;;;;4998292;28;20436;-67
2021/08/05 06:11:00;;;;;;;10.20;7.37;;;18.20;99.90;;;;;;4997945;28;20443;-69
2021/08/05 06:13:27;;;;;;;9.43;8.63;;;18.20;99.90;;;;;;4987768;28;20439;-67
2021/08/05 06:15:54;;;;;;;10.43;9.33;;;18.10;99.90;;;;;;4997562;28;20653;-68
2021/08/05 06:18:21;;;;;;;10.00;7.80;;;17.90;99.90;;;;;;4989904;28;20420;-68
2021/08/05 06:20:48;;;;;;;9.93;9.00;;;17.70;99.90;;;;;;4998915;28;20446;-67
2021/08/05 06:23:17;;;;;;;10.83;9.87;;;17.50;99.90;;;;;;4984818;28;20488;-66
2021/08/05 06:25:44;;;;;;;10.30;9.27;;;17.40;99.90;;;;;;4997971;28;20460;-68
2021/08/05 06:28:11;;;;;;;13.30;9.10;;;17.40;99.90;;;;;;4997508;28;20416;-69
2021/08/05 06:30:38;;;;;;;13.37;9.77;;;17.60;99.90;;;;;;4997742;28;20469;-67
2021/08/05 06:33:05;;;;;;;11.10;9.70;;;17.80;99.90;;;;;;4995005;28;20490;-67
2021/08/05 06:35:32;;;;;;;13.03;11.03;;;18.00;99.90;;;;;;4987498;28;20440;-66
2021/08/05 06:37:59;;;;;;;9.67;8.73;;;18.30;99.90;;;;;;4994906;28;20440;-66
2021/08/05 06:40:26;;;;;;;9.93;8.47;;;18.30;99.90;;;;;;5010739;28;20467;-68
2021/08/05 06:42:57;;;;;;;10.37;9.37;;;18.10;99.90;;;;;;4997869;28;20420;-69
2021/08/05 06:45:24;;;;;;;8.60;7.80;;;18.00;99.90;;;;;;4978126;28;20496;-68
2021/08/05 06:47:51;;;;;;;9.43;7.90;;;17.90;99.90;;;;;;4990590;28;20421;-69
2021/08/05 06:50:19;;;;;;;11.03;8.90;;;18.00;99.90;;;;;;4983844;28;20635;-70
2021/08/05 06:52:50;;;;;;;9.80;8.90;;;18.10;99.90;;;;;;5008211;28;20421;-70
2021/08/05 06:55:17;;;;;;;9.30;7.37;;;18.40;99.90;;;;;;5013334;28;20446;-71
2021/08/05 06:57:45;;;;;;;10.67;9.57;;;18.50;99.90;;;;;;4998269;28;20427;-71
2021/08/05 07:00:13;;;;;;;11.33;8.70;;;18.20;99.90;;;;;;4998148;28;21002;-72
2021/08/05 07:02:40;;;;;;;11.30;9.77;;;18.00;99.90;;;;;;5001003;28;20487;-72
2021/08/05 07:05:10;;;;;;;10.83;9.73;;;18.10;99.90;;;;;;4992196;28;20893;-71
2021/08/05 07:07:37;;;;;;;12.97;11.67;;;18.30;99.90;;;;;;4990832;28;20451;-71
2021/08/05 07:10:06;;;;;;;11.73;10.60;;;18.20;99.90;;;;;;4991396;28;20435;-70
2021/08/05 07:12:33;;;;;;;10.67;9.50;;;18.30;99.90;;;;;;5011245;28;20412;-71
2021/08/05 07:15:00;;;;;;;15.13;12.47;;;18.50;99.90;;;;;;5005301;28;20414;-72
2021/08/05 07:17:28;;;;;;;12.80;11.50;;;18.50;99.90;;;;;;4991334;28;20463;-72
2021/08/05 07:19:56;;;;;;;12.80;11.23;;;18.50;99.90;;;;;;4987489;28;20628;-71
2021/08/05 07:22:23;;;;;;;13.67;11.73;;;18.50;99.90;;;;;;4997513;28;20418;-72
2021/08/05 07:24:50;;;;;;;14.20;12.90;;;18.60;99.90;;;;;;5001817;28;20451;-72
2021/08/05 07:27:17;;;;;;;14.50;13.10;;;18.80;99.90;;;;;;5014868;28;20435;-70
2021/08/05 07:29:44;;;;;;;16.33;14.63;;;18.90;99.90;;;;;;5000368;28;20472;-71
2021/08/05 07:32:11;;;;;;;19.23;15.10;;;18.80;99.90;;;;;;5008515;28;20508;-70
2021/08/05 07:34:38;;;;;;;15.40;13.90;;;18.80;99.90;;;;;;5010162;28;20420;-71
2021/08/05 07:37:05;;;;;;;17.40;14.07;;;18.60;99.90;;;;;;4997232;28;20438;-70
2021/08/05 07:39:33;;;;;;;16.23;14.13;;;18.90;99.90;;;;;;4996425;28;20784;-72
2021/08/05 07:42:00;;;;;;;17.17;15.63;;;19.10;99.90;;;;;;4983640;28;20421;-72
2021/08/05 07:44:27;;;;;;;18.57;14.60;;;18.80;99.90;;;;;;4985096;28;20500;-72
2021/08/05 07:46:55;;;;;;;17.83;16.17;;;18.10;99.90;;;;;;5004377;28;20462;-71
2021/08/05 07:49:22;;;;;;;17.50;15.33;;;18.30;99.90;;;;;;4987855;28;20424;-72
2021/08/05 07:51:49;;;;;;;18.03;16.33;;;18.30;99.90;;;;;;5013342;28;20446;-73
2021/08/05 07:54:16;;;;;;;18.47;16.57;;;18.20;99.90;;;;;;5014901;28;20446;-70
2021/08/05 07:56:43;;;;;;;17.97;16.20;;;18.20;99.90;;;;;;4986099;28;20414;-69
2021/08/05 07:59:11;;;;;;;17.63;16.03;;;18.40;99.90;;;;;;4984868;28;20417;-72
2021/08/05 08:01:38;;;;;;;18.93;16.50;;;18.40;99.90;;;;;;4995869;28;20492;-69
2021/08/05 08:04:05;;;;;;;18.33;16.50;;;18.40;99.90;;;;;;4989534;28;20819;-71
2021/08/05 08:06:32;;;;;;;18.37;16.73;;;18.10;99.90;;;;;;5016670;28;21032;-68
2021/08/05 08:08:59;;;;;;;19.00;17.10;;;18.10;99.90;;;;;;5002833;28;20450;-70
2021/08/05 08:11:26;;;;;;;17.17;15.47;;;18.10;99.90;;;;;;5016666;28;20445;-70
2021/08/05 08:13:54;;;;;;;17.87;16.27;;;18.00;99.90;;;;;;5011275;28;20411;-68
2021/08/05 08:16:21;;;;;;;18.93;17.00;;;18.00;99.90;;;;;;4986808;28;20439;-69
2021/08/05 08:18:49;;;;;;;18.83;17.00;;;18.00;99.90;;;;;;4992500;28;20442;-69
2021/08/05 08:21:18;;;;;;;20.63;18.23;;;18.10;99.90;;;;;;4999941;28;20469;-68
2021/08/05 08:23:46;;;;;;;20.17;18.17;;;18.30;99.90;;;;;;4997110;28;20467;-69
2021/08/05 08:26:13;;;;;;;17.77;16.00;;;18.50;99.90;;;;;;4979188;28;20906;-71
2021/08/05 08:28:41;;;;;;;19.67;17.57;;;18.50;99.90;;;;;;5005361;28;20627;-70
2021/08/05 08:31:08;;;;;;;17.07;15.47;;;18.50;99.90;;;;;;5004900;28;20550;-70
2021/08/05 08:33:35;;;;;;;15.97;14.53;;;18.40;99.90;;;;;;5013469;28;20718;-71
2021/08/05 08:36:02;;;;;;;16.63;14.57;;;18.40;99.90;;;;;;5000767;28;20484;-69
2021/08/05 08:38:29;;;;;;;15.73;13.67;;;18.40;99.90;;;;;;4981327;28;20459;-72
2021/08/05 08:40:57;;;;;;;14.17;12.87;;;18.40;99.90;;;;;;4981095;28;20499;-69
2021/08/05 08:43:24;;;;;;;14.43;12.77;;;18.60;99.90;;;;;;4993937;28;20479;-71
2021/08/05 08:45:55;;;;;;;14.83;13.40;;;18.80;99.90;;;;;;4990651;28;20536;-71
2021/08/05 08:48:29;;;;;;;15.03;13.63;;;19.00;99.90;;;;;;4997128;28;20443;-71
2021/08/05 08:51:01;;;;;;;14.70;13.30;;;19.30;99.90;;;;;;4990049;28;20595;-73
2021/08/05 08:53:40;;;;;;;13.37;12.10;;;19.50;99.90;;;;;;4985774;28;20575;-71
2021/08/05 08:56:08;;;;;;;15.17;13.80;;;19.80;99.90;;;;;;4999668;28;20947;-74
2021/08/05 08:58:36;;;;;;;14.27;12.77;;;20.10;99.90;;;;;;4997429;28;20541;-71
2021/08/05 09:01:03;;;;;;;14.00;12.80;;;20.40;99.90;;;;;;4989853;28;20410;-71
2021/08/05 09:03:32;;;;;;;12.00;10.90;;;20.50;99.90;;;;;;4987432;28;20544;-72
2021/08/05 09:05:59;;;;;;;12.27;11.03;;;20.40;99.90;;;;;;5005286;28;20475;-69
2021/08/05 09:08:27;;;;;;;15.27;13.87;;;20.20;99.90;;;;;;4993894;28;20435;-70
2021/08/05 09:10:55;;;;;;;14.70;13.10;;;20.40;99.90;;;;;;4980927;28;20837;-71
2021/08/05 09:13:22;;;;;;;13.23;12.10;;;20.20;99.90;;;;;;5004932;28;20413;-70
2021/08/05 09:15:49;;;;;;;15.17;11.07;;;20.10;99.90;;;;;;5000560;28;20763;-71
2021/08/05 09:18:32;;;;;;;13.80;12.40;;;20.70;99.90;;;;;;5000257;28;20486;-71
2021/08/05 09:21:34;;;;;;;12.33;11.30;;;21.00;99.90;;;;;;5000088;28;20412;-70
2021/08/05 09:24:08;;;;;;;12.23;11.33;;;21.00;99.90;;;;;;4978469;28;20485;-69
2021/08/05 09:26:44;;;;;;;13.43;12.07;;;21.00;99.90;;;;;;4991595;28;20833;-70
2021/08/05 09:29:14;;;;;;;11.83;10.73;;;20.90;99.90;;;;;;4985448;28;20487;-69
2021/08/05 09:31:49;;;;;;;13.23;11.83;;;20.70;99.90;;;;;;5013659;28;20519;-69
2021/08/05 09:34:22;;;;;;;12.90;10.07;;;20.30;99.90;;;;;;5001511;28;20409;-70
2021/08/05 09:36:58;;;;;;;13.70;12.50;;;20.30;99.90;;;;;;5001662;28;20628;-70
2021/08/05 09:39:27;;;;;;;14.50;13.30;;;20.50;99.90;;;;;;4987495;28;20507;-69
2021/08/05 09:41:57;;;;;;;12.73;11.57;;;20.60;99.90;;;;;;4986072;28;20463;-71
2021/08/05 09:44:42;;;;;;;8.73;7.83;;;21.10;99.90;;;;;;4991717;28;20449;-69
2021/08/05 09:47:13;;;;;;;7.80;7.20;;;21.20;99.90;;;;;;4980583;28;20412;-70
2021/08/05 09:49:57;;;;;;;8.43;7.63;;;21.10;99.90;;;;;;4997260;28;20701;-71
2021/08/05 09:52:27;;;;;;;7.87;7.27;;;21.00;99.90;;;;;;4980181;28;20434;-70
2021/08/05 09:54:54;;;;;;;7.80;7.17;;;20.50;99.90;;;;;;4994397;28;20469;-70
2021/08/05 09:57:27;;;;;;;8.70;7.80;;;20.50;99.90;;;;;;4999875;28;20820;-72
2021/08/05 09:59:59;;;;;;;8.13;7.33;;;20.50;99.90;;;;;;4986876;28;20798;-70
2021/08/05 10:02:42;;;;;;;7.87;7.17;;;20.50;99.90;;;;;;5002533;28;20434;-73
2021/08/05 10:05:11;;;;;;;9.87;8.83;;;21.10;99.90;;;;;;5001359;28;20461;-71
2021/08/05 10:07:42;;;;;;;8.60;7.90;;;21.20;99.90;;;;;;5002919;28;20441;-72
2021/08/05 10:10:11;;;;;;;8.43;7.83;;;20.90;99.90;;;;;;4999476;28;20764;-71
2021/08/05 10:12:39;;;;;;;8.70;7.97;;;21.30;99.90;;;;;;4992352;28;20457;-69
2021/08/05 10:15:08;;;;;;;9.50;8.67;;;21.60;99.90;;;;;;4988484;28;20459;-73
2021/08/05 10:17:36;;;;;;;8.80;8.20;;;22.10;99.90;;;;;;4998718;28;20654;-71
2021/08/05 10:20:05;;;;;;;8.30;7.63;;;22.10;99.90;;;;;;4991732;28;20449;-70
2021/08/05 10:22:32;;;;;;;9.00;8.23;;;22.10;99.90;;;;;;5000009;28;20478;-74
2021/08/05 10:25:00;;;;;;;9.50;8.53;;;21.80;99.90;;;;;;4991008;28;20478;-69
2021/08/05 10:27:28;;;;;;;8.13;7.43;;;21.30;99.90;;;;;;4982822;28;20600;-72
2021/08/05 10:29:55;;;;;;;8.97;8.17;;;21.10;99.90;;;;;;4989707;28;20445;-68
2021/08/05 10:32:23;;;;;;;8.57;7.83;;;20.90;99.90;;;;;;4992627;28;20739;-69
2021/08/05 10:34:52;;;;;;;9.37;8.47;;;20.90;99.90;;;;;;4991453;28;20498;-69
2021/08/05 10:37:21;;;;;;;9.17;7.80;;;20.90;99.90;;;;;;4997984;28;20490;-72
2021/08/05 10:39:49;;;;;;;7.77;7.07;;;20.70;99.90;;;;;;5000058;28;20435;-69
2021/08/05 10:42:18;;;;;;;7.30;6.80;;;20.80;99.90;;;;;;4999591;28;20418;-70
2021/08/05 10:44:47;;;;;;;8.43;7.83;;;20.60;99.90;;;;;;4989315;28;20415;-71
2021/08/05 10:47:24;;;;;;;8.00;7.30;;;20.50;99.90;;;;;;4997619;28;20792;-70
2021/08/05 10:49:57;;;;;;;7.80;7.03;;;20.40;99.90;;;;;;4999540;28;20453;-70
2021/08/05 10:52:37;;;;;;;7.40;6.80;;;20.70;99.90;;;;;;4984873;28;20415;-73
2021/08/05 10:55:20;;;;;;;8.00;7.30;;;20.80;99.90;;;;;;4996022;28;20414;-69
2021/08/05 10:58:10;;;;;;;7.67;7.07;;;20.80;99.90;;;;;;4998938;28;20785;-69
2021/08/05 11:00:52;;;;;;;7.73;7.13;;;20.30;99.90;;;;;;4999703;28;20783;-69
2021/08/05 11:03:31;;;;;;;7.70;7.10;;;20.20;99.90;;;;;;4998114;28;20864;-69
2021/08/05 11:06:03;;;;;;;6.87;6.37;;;20.20;99.90;;;;;;4983452;28;21038;-70
2021/08/05 11:08:31;;;;;;;6.40;5.90;;;19.90;99.90;;;;;;4980040;28;20696;-70
2021/08/05 11:11:21;;;;;;;7.63;7.03;;;19.20;99.90;;;;;;4980692;28;20544;-69
2021/08/05 11:14:00;;;;;;;8.77;7.97;;;18.50;99.90;;;;;;4979132;28;20653;-69
2021/08/05 11:16:53;;;;;;;7.93;7.37;;;18.20;99.90;;;;;;4995899;28;20778;-70
2021/08/05 11:19:29;;;;;;;11.30;10.20;;;18.00;99.90;;;;;;4984535;28;20413;-68
2021/08/05 11:21:56;;;;;;;12.50;11.50;;;17.90;99.90;;;;;;4992357;28;20435;-69
2021/08/05 11:24:47;;;;;;;13.87;12.57;;;17.90;99.90;;;;;;4996184;28;20639;-68
2021/08/05 11:27:18;;;;;;;12.10;11.20;;;18.10;99.90;;;;;;5008048;28;20514;-68
2021/08/05 11:29:46;;;;;;;11.60;10.43;;;18.40;99.90;;;;;;5003329;28;20742;-68
2021/08/05 11:32:22;;;;;;;9.17;8.47;;;18.70;99.90;;;;;;5003882;28;20494;-70
2021/08/05 11:34:58;;;;;;;11.17;10.17;;;19.00;99.90;;;;;;4997325;28;20431;-70
2021/08/05 11:37:26;;;;;;;11.00;10.00;;;19.00;99.90;;;;;;5005204;28;20427;-70
2021/08/05 11:40:04;;;;;;;10.37;9.43;;;18.90;99.90;;;;;;4996310;28;20699;-68
2021/08/05 11:42:31;;;;;;;14.13;10.20;;;18.70;99.90;;;;;;5006766;28;20480;-71
2021/08/05 11:44:59;;;;;;;7.90;7.20;;;18.70;99.90;;;;;;5013871;28;20477;-69
2021/08/05 11:47:36;;;;;;;11.27;10.27;;;18.90;99.90;;;;;;5004566;28;20409;-68
2021/08/05 11:50:04;;;;;;;10.50;9.60;;;19.00;99.90;;;;;;5013523;28;20429;-69
2021/08/05 11:52:45;;;;;;;9.03;8.30;;;19.40;99.90;;;;;;5005732;28;20438;-70
2021/08/05 11:55:20;;;;;;;10.10;9.10;;;19.30;99.90;;;;;;4997628;28;20451;-67
2021/08/05 11:57:48;;;;;;;9.23;8.30;;;19.50;99.90;;;;;;4996023;28;20509;-68
2021/08/05 12:00:27;;;;;;;7.97;7.17;;;19.70;99.90;;;;;;4988576;28;20419;-69
2021/08/05 12:03:08;;;;;;;8.73;8.03;;;19.50;99.90;;;;;;4981824;28;20411;-68
2021/08/05 12:05:48;;;;;;;8.50;7.80;;;19.30;99.90;;;;;;4993622;28;20490;-69
2021/08/05 12:08:21;;;;;;;9.30;8.50;;;19.20;99.90;;;;;;4982229;28;20448;-68
2021/08/05 12:10:48;;;;;;;9.17;8.37;;;18.90;99.90;;;;;;5006387;28;20641;-68
2021/08/05 12:13:20;;;;;;;9.97;9.17;;;18.90;99.90;;;;;;4997179;28;20417;-70
2021/08/05 12:15:53;;;;;;;8.83;8.13;;;18.80;99.90;;;;;;4994000;28;20435;-67
2021/08/05 12:18:26;;;;;;;9.53;8.73;;;19.00;99.90;;;;;;4993744;28;20451;-69
2021/08/05 12:21:02;;;;;;;10.03;9.23;;;19.00;99.90;;;;;;4998049;28;20761;-70
2021/08/05 12:23:37;;;;;;;9.87;8.90;;;19.00;99.90;;;;;;4981790;28;20505;-71
2021/08/05 12:28:41;;;;;;;9.43;8.60;;;18.70;99.90;;;;;;5000521;28;20607;-72
2021/08/05 12:31:09;;;;;;;9.67;8.87;;;18.60;99.90;;;;;;4996004;28;20420;-69
2021/08/05 12:33:40;;;;;;;11.50;9.77;;;18.40;99.90;;;;;;4996681;28;20757;-68
2021/08/05 12:36:12;;;;;;;11.13;9.30;;;18.40;99.90;;;;;;5011103;28;20477;-69
2021/08/05 12:38:48;;;;;;;10.00;9.20;;;18.40;99.90;;;;;;4992506;28;20480;-71
2021/08/05 12:41:25;;;;;;;11.63;10.67;;;18.30;99.90;;;;;;5000677;28;20426;-69
2021/08/05 12:43:55;;;;;;;12.33;10.63;;;18.40;99.90;;;;;;4993174;28;20445;-70
2021/08/05 12:46:24;;;;;;;12.10;11.00;;;18.50;99.90;;;;;;4993117;28;20644;-69
2021/08/05 12:48:55;;;;;;;13.60;12.40;;;18.60;99.90;;;;;;4983576;28;20446;-70
2021/08/05 12:51:26;;;;;;;11.33;10.33;;;18.80;99.90;;;;;;4989740;28;20441;-70
2021/08/05 12:53:54;;;;;;;12.27;10.67;;;18.70;99.90;;;;;;4991580;28;20813;-70
2021/08/05 12:56:46;;;;;;;10.53;9.63;;;18.90;99.90;;;;;;4998656;28;20464;-69